sensor_id;sensor_type;location;lat;lon;timestamp;P1;durP1;ratioP1;P2;durP2;ratioP2
48554;SDS011;34336;48.270;16.716;2023-02-15T00:02:00;34.08;;;18.27;;
48554;SDS011;34336;48.270;16.716;2023-02-15T00:04:27;33.13;;;17.48;;
48554;SDS011;34336;48.270;16.716;2023-02-15T00:07:13;37.75;;;20.15;;
48554;SDS011;34336;48.270;16.716;2023-02-15T00:09:41;35.78;;;19.77;;
48554;SDS011;34336;48.270;16.716;2023-02-15T00:12:09;42.65;;;21.90;;
48554;SDS011;34336;48.270;16.716;2023-02-15T00:14:36;35.15;;;19.20;;
48554;SDS011;34336;48.270;16.716;2023-02-15T00:17:03;32.97;;;18.05;;
48554;SDS011;34336;48.270;16.716;2023-02-15T00:19:30;35.53;;;19.30;;
48554;SDS011;34336;48.270;16.716;2023-02-15T00:21:57;36.08;;;18.52;;
48554;SDS011;34336;48.270;16.716;2023-02-15T00:24:24;34.42;;;18.90;;
48554;SDS011;34336;48.270;16.716;2023-02-15T00:26:50;33.72;;;18.10;;
48554;SDS011;34336;48.270;16.716;2023-02-15T00:29:18;31.63;;;17.42;;
48554;SDS011;34336;48.270;16.716;2023-02-15T00:31:45;35.22;;;18.13;;
48554;SDS011;34336;48.270;16.716;2023-02-15T00:36:40;34.97;;;17.98;;
48554;SDS011;34336;48.270;16.716;2023-02-15T00:39:08;32.72;;;18.20;;
48554;SDS011;34336;48.270;16.716;2023-02-15T00:41:36;34.53;;;18.05;;
48554;SDS011;34336;48.270;16.716;2023-02-15T00:44:03;31.92;;;16.98;;
48554;SDS011;34336;48.270;16.716;2023-02-15T00:46:30;37.55;;;18.58;;
48554;SDS011;34336;48.270;16.716;2023-02-15T00:48:58;36.92;;;18.75;;
48554;SDS011;34336;48.270;16.716;2023-02-15T00:51:24;34.17;;;18.85;;
48554;SDS011;34336;48.270;16.716;2023-02-15T00:53:52;33.85;;;17.67;;
48554;SDS011;34336;48.270;16.716;2023-02-15T00:56:18;31.95;;;17.67;;
48554;SDS011;34336;48.270;16.716;2023-02-15T00:58:45;30.50;;;17.50;;
48554;SDS011;34336;48.270;16.716;2023-02-15T01:01:13;34.15;;;17.67;;
48554;SDS011;34336;48.270;16.716;2023-02-15T01:03:44;36.38;;;18.55;;
48554;SDS011;34336;48.270;16.716;2023-02-15T01:06:13;33.70;;;18.40;;
48554;SDS011;34336;48.270;16.716;2023-02-15T01:08:42;35.42;;;18.80;;
48554;SDS011;34336;48.270;16.716;2023-02-15T01:11:14;34.72;;;18.15;;
48554;SDS011;34336;48.270;16.716;2023-02-15T01:13:50;34.35;;;18.27;;
48554;SDS011;34336;48.270;16.716;2023-02-15T01:16:18;35.25;;;18.73;;
48554;SDS011;34336;48.270;16.716;2023-02-15T01:18:45;27.65;;;15.90;;
48554;SDS011;34336;48.270;16.716;2023-02-15T01:21:15;33.30;;;17.50;;
48554;SDS011;34336;48.270;16.716;2023-02-15T01:23:44;31.35;;;18.20;;
48554;SDS011;34336;48.270;16.716;2023-02-15T01:26:11;32.95;;;17.88;;
48554;SDS011;34336;48.270;16.716;2023-02-15T01:28:39;34.22;;;17.63;;
48554;SDS011;34336;48.270;16.716;2023-02-15T01:31:09;31.77;;;17.42;;
48554;SDS011;34336;48.270;16.716;2023-02-15T01:33:43;30.08;;;16.80;;
48554;SDS011;34336;48.270;16.716;2023-02-15T01:36:10;32.25;;;17.90;;
48554;SDS011;34336;48.270;16.716;2023-02-15T01:38:37;32.63;;;17.27;;
48554;SDS011;34336;48.270;16.716;2023-02-15T01:41:05;36.17;;;17.95;;
48554;SDS011;34336;48.270;16.716;2023-02-15T01:43:54;33.25;;;17.30;;
48554;SDS011;34336;48.270;16.716;2023-02-15T01:46:25;35.42;;;18.27;;
48554;SDS011;34336;48.270;16.716;2023-02-15T01:49:10;31.98;;;16.55;;
48554;SDS011;34336;48.270;16.716;2023-02-15T01:51:41;35.10;;;17.52;;
48554;SDS011;34336;48.270;16.716;2023-02-15T01:54:13;29.65;;;16.17;;
48554;SDS011;34336;48.270;16.716;2023-02-15T01:56:46;34.13;;;16.95;;
48554;SDS011;34336;48.270;16.716;2023-02-15T01:59:15;32.30;;;17.02;;
48554;SDS011;34336;48.270;16.716;2023-02-15T02:01:47;33.25;;;17.50;;
48554;SDS011;34336;48.270;16.716;2023-02-15T02:06:58;35.65;;;17.27;;
48554;SDS011;34336;48.270;16.716;2023-02-15T02:09:26;34.35;;;18.17;;
48554;SDS011;34336;48.270;16.716;2023-02-15T02:11:53;34.25;;;17.42;;
48554;SDS011;34336;48.270;16.716;2023-02-15T02:14:20;31.70;;;16.80;;
48554;SDS011;34336;48.270;16.716;2023-02-15T02:16:53;34.90;;;17.70;;
48554;SDS011;34336;48.270;16.716;2023-02-15T02:21:59;37.53;;;17.35;;
48554;SDS011;34336;48.270;16.716;2023-02-15T02:27:47;35.17;;;17.98;;
48554;SDS011;34336;48.270;16.716;2023-02-15T02:38:39;33.55;;;17.77;;
48554;SDS011;34336;48.270;16.716;2023-02-15T02:46:41;34.58;;;16.77;;
48554;SDS011;34336;48.270;16.716;2023-02-15T02:49:16;35.00;;;17.42;;
48554;SDS011;34336;48.270;16.716;2023-02-15T02:51:42;32.22;;;17.40;;
48554;SDS011;34336;48.270;16.716;2023-02-15T02:54:09;33.25;;;17.60;;
48554;SDS011;34336;48.270;16.716;2023-02-15T02:56:42;37.17;;;17.73;;
48554;SDS011;34336;48.270;16.716;2023-02-15T02:59:18;36.50;;;18.42;;
48554;SDS011;34336;48.270;16.716;2023-02-15T03:01:59;37.30;;;18.73;;
48554;SDS011;34336;48.270;16.716;2023-02-15T03:04:40;36.85;;;18.15;;
48554;SDS011;34336;48.270;16.716;2023-02-15T03:07:15;34.28;;;17.60;;
48554;SDS011;34336;48.270;16.716;2023-02-15T03:09:50;35.65;;;17.92;;
48554;SDS011;34336;48.270;16.716;2023-02-15T03:12:24;36.83;;;17.60;;
48554;SDS011;34336;48.270;16.716;2023-02-15T03:14:58;31.20;;;16.67;;
48554;SDS011;34336;48.270;16.716;2023-02-15T03:17:31;33.92;;;17.83;;
48554;SDS011;34336;48.270;16.716;2023-02-15T03:20:01;32.85;;;18.00;;
48554;SDS011;34336;48.270;16.716;2023-02-15T03:22:38;33.03;;;17.40;;
48554;SDS011;34336;48.270;16.716;2023-02-15T03:25:16;34.22;;;18.98;;
48554;SDS011;34336;48.270;16.716;2023-02-15T03:27:53;32.15;;;17.02;;
48554;SDS011;34336;48.270;16.716;2023-02-15T03:30:33;38.63;;;18.38;;
48554;SDS011;34336;48.270;16.716;2023-02-15T03:33:01;36.47;;;17.65;;
48554;SDS011;34336;48.270;16.716;2023-02-15T03:35:36;33.60;;;17.00;;
48554;SDS011;34336;48.270;16.716;2023-02-15T03:38:09;34.35;;;17.40;;
48554;SDS011;34336;48.270;16.716;2023-02-15T03:40:38;36.38;;;17.65;;
48554;SDS011;34336;48.270;16.716;2023-02-15T03:46:28;36.05;;;16.73;;
48554;SDS011;34336;48.270;16.716;2023-02-15T03:49:04;30.75;;;16.33;;
48554;SDS011;34336;48.270;16.716;2023-02-15T03:51:37;33.65;;;16.65;;
48554;SDS011;34336;48.270;16.716;2023-02-15T03:54:13;33.63;;;17.27;;
48554;SDS011;34336;48.270;16.716;2023-02-15T03:57:06;34.15;;;18.02;;
48554;SDS011;34336;48.270;16.716;2023-02-15T03:59:54;31.38;;;16.20;;
48554;SDS011;34336;48.270;16.716;2023-02-15T04:02:50;32.60;;;16.40;;
48554;SDS011;34336;48.270;16.716;2023-02-15T04:05:26;34.30;;;16.50;;
48554;SDS011;34336;48.270;16.716;2023-02-15T04:07:53;33.78;;;17.80;;
48554;SDS011;34336;48.270;16.716;2023-02-15T04:10:20;33.25;;;17.48;;
48554;SDS011;34336;48.270;16.716;2023-02-15T04:13:05;35.67;;;17.50;;
48554;SDS011;34336;48.270;16.716;2023-02-15T04:15:31;32.67;;;16.73;;
48554;SDS011;34336;48.270;16.716;2023-02-15T04:18:16;31.83;;;15.90;;
48554;SDS011;34336;48.270;16.716;2023-02-15T04:20:44;34.78;;;17.75;;
48554;SDS011;34336;48.270;16.716;2023-02-15T04:23:30;37.80;;;17.45;;
48554;SDS011;34336;48.270;16.716;2023-02-15T04:26:15;33.22;;;17.33;;
48554;SDS011;34336;48.270;16.716;2023-02-15T04:28:42;34.22;;;17.20;;
48554;SDS011;34336;48.270;16.716;2023-02-15T04:31:08;35.03;;;17.13;;
48554;SDS011;34336;48.270;16.716;2023-02-15T04:33:35;33.78;;;17.55;;
48554;SDS011;34336;48.270;16.716;2023-02-15T04:36:03;34.00;;;17.35;;
48554;SDS011;34336;48.270;16.716;2023-02-15T04:38:30;37.53;;;17.58;;
48554;SDS011;34336;48.270;16.716;2023-02-15T04:40:57;34.40;;;17.20;;
48554;SDS011;34336;48.270;16.716;2023-02-15T04:43:23;31.35;;;16.67;;
48554;SDS011;34336;48.270;16.716;2023-02-15T04:45:50;36.65;;;17.80;;
48554;SDS011;34336;48.270;16.716;2023-02-15T04:48:17;36.10;;;17.55;;
48554;SDS011;34336;48.270;16.716;2023-02-15T04:50:44;34.15;;;17.95;;
48554;SDS011;34336;48.270;16.716;2023-02-15T04:53:11;30.65;;;16.48;;
48554;SDS011;34336;48.270;16.716;2023-02-15T04:55:37;27.60;;;16.25;;
48554;SDS011;34336;48.270;16.716;2023-02-15T04:58:04;35.67;;;17.08;;
48554;SDS011;34336;48.270;16.716;2023-02-15T05:00:31;30.85;;;16.55;;
48554;SDS011;34336;48.270;16.716;2023-02-15T05:02:57;32.00;;;17.08;;
48554;SDS011;34336;48.270;16.716;2023-02-15T05:05:24;35.15;;;17.35;;
48554;SDS011;34336;48.270;16.716;2023-02-15T05:07:51;34.40;;;18.02;;
48554;SDS011;34336;48.270;16.716;2023-02-15T05:10:17;35.03;;;17.02;;
48554;SDS011;34336;48.270;16.716;2023-02-15T05:12:44;32.58;;;16.60;;
48554;SDS011;34336;48.270;16.716;2023-02-15T05:15:11;36.58;;;17.55;;
48554;SDS011;34336;48.270;16.716;2023-02-15T05:17:38;35.67;;;17.83;;
48554;SDS011;34336;48.270;16.716;2023-02-15T05:20:05;33.40;;;16.38;;
48554;SDS011;34336;48.270;16.716;2023-02-15T05:22:32;34.05;;;17.83;;
48554;SDS011;34336;48.270;16.716;2023-02-15T05:24:59;30.30;;;16.17;;
48554;SDS011;34336;48.270;16.716;2023-02-15T05:27:44;32.20;;;16.60;;
48554;SDS011;34336;48.270;16.716;2023-02-15T05:30:30;33.38;;;17.02;;
48554;SDS011;34336;48.270;16.716;2023-02-15T05:32:57;37.50;;;18.40;;
48554;SDS011;34336;48.270;16.716;2023-02-15T05:35:24;39.70;;;18.52;;
48554;SDS011;34336;48.270;16.716;2023-02-15T05:37:50;33.90;;;17.48;;
48554;SDS011;34336;48.270;16.716;2023-02-15T05:40:17;33.13;;;17.75;;
48554;SDS011;34336;48.270;16.716;2023-02-15T05:42:44;36.08;;;18.20;;
48554;SDS011;34336;48.270;16.716;2023-02-15T05:45:10;34.35;;;17.52;;
48554;SDS011;34336;48.270;16.716;2023-02-15T05:47:37;33.83;;;17.92;;
48554;SDS011;34336;48.270;16.716;2023-02-15T05:50:04;31.35;;;17.23;;
48554;SDS011;34336;48.270;16.716;2023-02-15T05:52:31;32.40;;;17.70;;
48554;SDS011;34336;48.270;16.716;2023-02-15T05:54:57;31.38;;;17.85;;
48554;SDS011;34336;48.270;16.716;2023-02-15T05:57:26;32.03;;;16.63;;
48554;SDS011;34336;48.270;16.716;2023-02-15T05:59:53;33.65;;;17.23;;
48554;SDS011;34336;48.270;16.716;2023-02-15T06:02:20;31.50;;;16.92;;
48554;SDS011;34336;48.270;16.716;2023-02-15T06:04:47;37.03;;;17.73;;
48554;SDS011;34336;48.270;16.716;2023-02-15T06:07:13;48.28;;;25.92;;
48554;SDS011;34336;48.270;16.716;2023-02-15T06:09:40;31.23;;;17.15;;
48554;SDS011;34336;48.270;16.716;2023-02-15T06:12:06;32.15;;;17.40;;
48554;SDS011;34336;48.270;16.716;2023-02-15T06:14:33;32.65;;;16.95;;
48554;SDS011;34336;48.270;16.716;2023-02-15T06:17:00;31.02;;;16.08;;
48554;SDS011;34336;48.270;16.716;2023-02-15T06:19:26;35.50;;;17.13;;
48554;SDS011;34336;48.270;16.716;2023-02-15T06:21:53;31.25;;;16.80;;
48554;SDS011;34336;48.270;16.716;2023-02-15T06:24:20;33.35;;;17.48;;
48554;SDS011;34336;48.270;16.716;2023-02-15T06:26:46;32.38;;;16.80;;
48554;SDS011;34336;48.270;16.716;2023-02-15T06:29:13;30.73;;;17.23;;
48554;SDS011;34336;48.270;16.716;2023-02-15T06:31:40;30.42;;;17.45;;
48554;SDS011;34336;48.270;16.716;2023-02-15T06:34:07;34.40;;;16.90;;
48554;SDS011;34336;48.270;16.716;2023-02-15T06:36:34;31.85;;;17.27;;
48554;SDS011;34336;48.270;16.716;2023-02-15T06:39:01;36.25;;;17.95;;
48554;SDS011;34336;48.270;16.716;2023-02-15T06:41:29;32.45;;;17.58;;
48554;SDS011;34336;48.270;16.716;2023-02-15T06:43:56;32.50;;;17.60;;
48554;SDS011;34336;48.270;16.716;2023-02-15T06:46:23;33.63;;;16.92;;
48554;SDS011;34336;48.270;16.716;2023-02-15T06:48:49;32.70;;;17.05;;
48554;SDS011;34336;48.270;16.716;2023-02-15T06:51:16;35.00;;;18.00;;
48554;SDS011;34336;48.270;16.716;2023-02-15T06:53:43;29.05;;;16.60;;
48554;SDS011;34336;48.270;16.716;2023-02-15T06:56:10;36.17;;;18.45;;
48554;SDS011;34336;48.270;16.716;2023-02-15T06:58:40;35.17;;;18.08;;
48554;SDS011;34336;48.270;16.716;2023-02-15T07:01:08;33.05;;;17.70;;
48554;SDS011;34336;48.270;16.716;2023-02-15T07:03:35;41.72;;;18.73;;
48554;SDS011;34336;48.270;16.716;2023-02-15T07:06:03;38.78;;;18.23;;
48554;SDS011;34336;48.270;16.716;2023-02-15T07:08:37;40.65;;;18.00;;
48554;SDS011;34336;48.270;16.716;2023-02-15T07:11:05;37.13;;;18.00;;
48554;SDS011;34336;48.270;16.716;2023-02-15T07:13:52;38.97;;;18.33;;
48554;SDS011;34336;48.270;16.716;2023-02-15T07:16:19;46.85;;;20.17;;
48554;SDS011;34336;48.270;16.716;2023-02-15T07:18:46;35.38;;;17.88;;
48554;SDS011;34336;48.270;16.716;2023-02-15T07:21:13;36.65;;;17.27;;
48554;SDS011;34336;48.270;16.716;2023-02-15T07:23:39;42.58;;;19.48;;
48554;SDS011;34336;48.270;16.716;2023-02-15T07:26:07;38.72;;;19.92;;
48554;SDS011;34336;48.270;16.716;2023-02-15T07:28:34;40.65;;;17.67;;
48554;SDS011;34336;48.270;16.716;2023-02-15T07:31:01;36.22;;;18.92;;
48554;SDS011;34336;48.270;16.716;2023-02-15T07:33:32;44.53;;;20.75;;
48554;SDS011;34336;48.270;16.716;2023-02-15T07:36:00;49.70;;;19.70;;
48554;SDS011;34336;48.270;16.716;2023-02-15T07:38:32;47.07;;;22.40;;
48554;SDS011;34336;48.270;16.716;2023-02-15T07:41:01;47.20;;;21.50;;
48554;SDS011;34336;48.270;16.716;2023-02-15T07:43:30;39.92;;;20.02;;
48554;SDS011;34336;48.270;16.716;2023-02-15T07:46:00;42.50;;;19.65;;
48554;SDS011;34336;48.270;16.716;2023-02-15T07:48:28;45.15;;;20.30;;
48554;SDS011;34336;48.270;16.716;2023-02-15T07:50:58;50.08;;;22.10;;
48554;SDS011;34336;48.270;16.716;2023-02-15T07:53:25;43.00;;;19.38;;
48554;SDS011;34336;48.270;16.716;2023-02-15T07:55:52;51.08;;;22.42;;
48554;SDS011;34336;48.270;16.716;2023-02-15T07:58:19;43.85;;;21.58;;
48554;SDS011;34336;48.270;16.716;2023-02-15T08:00:45;45.00;;;21.48;;
48554;SDS011;34336;48.270;16.716;2023-02-15T08:03:27;43.17;;;22.02;;
48554;SDS011;34336;48.270;16.716;2023-02-15T08:05:56;46.72;;;21.83;;
48554;SDS011;34336;48.270;16.716;2023-02-15T08:08:25;47.33;;;22.42;;
48554;SDS011;34336;48.270;16.716;2023-02-15T08:13:51;47.85;;;23.25;;
48554;SDS011;34336;48.270;16.716;2023-02-15T08:19:12;43.15;;;21.25;;
48554;SDS011;34336;48.270;16.716;2023-02-15T08:21:57;43.97;;;22.85;;
48554;SDS011;34336;48.270;16.716;2023-02-15T08:24:30;46.65;;;22.48;;
48554;SDS011;34336;48.270;16.716;2023-02-15T08:27:00;50.42;;;22.95;;
48554;SDS011;34336;48.270;16.716;2023-02-15T08:29:32;43.05;;;21.27;;
48554;SDS011;34336;48.270;16.716;2023-02-15T08:32:00;47.42;;;21.13;;
48554;SDS011;34336;48.270;16.716;2023-02-15T08:34:32;46.35;;;21.45;;
48554;SDS011;34336;48.270;16.716;2023-02-15T08:37:01;43.95;;;21.20;;
48554;SDS011;34336;48.270;16.716;2023-02-15T08:39:27;45.22;;;21.27;;
48554;SDS011;34336;48.270;16.716;2023-02-15T08:41:54;39.33;;;20.85;;
48554;SDS011;34336;48.270;16.716;2023-02-15T08:44:21;42.25;;;20.75;;
48554;SDS011;34336;48.270;16.716;2023-02-15T08:46:49;43.30;;;20.73;;
48554;SDS011;34336;48.270;16.716;2023-02-15T08:49:20;44.38;;;21.70;;
48554;SDS011;34336;48.270;16.716;2023-02-15T08:51:48;49.80;;;22.53;;
48554;SDS011;34336;48.270;16.716;2023-02-15T08:54:16;46.40;;;21.85;;
48554;SDS011;34336;48.270;16.716;2023-02-15T08:56:46;45.15;;;23.05;;
48554;SDS011;34336;48.270;16.716;2023-02-15T08:59:17;49.38;;;22.27;;
48554;SDS011;34336;48.270;16.716;2023-02-15T09:01:46;48.42;;;23.17;;
48554;SDS011;34336;48.270;16.716;2023-02-15T09:04:13;45.65;;;22.65;;
48554;SDS011;34336;48.270;16.716;2023-02-15T09:06:42;40.65;;;21.15;;
48554;SDS011;34336;48.270;16.716;2023-02-15T09:09:13;43.58;;;21.83;;
48554;SDS011;34336;48.270;16.716;2023-02-15T09:11:41;39.90;;;21.50;;
48554;SDS011;34336;48.270;16.716;2023-02-15T09:14:13;45.15;;;22.38;;
48554;SDS011;34336;48.270;16.716;2023-02-15T09:16:41;43.50;;;22.80;;
48554;SDS011;34336;48.270;16.716;2023-02-15T09:19:15;39.83;;;21.40;;
48554;SDS011;34336;48.270;16.716;2023-02-15T09:21:43;49.08;;;23.23;;
48554;SDS011;34336;48.270;16.716;2023-02-15T09:24:11;49.20;;;23.85;;
48554;SDS011;34336;48.270;16.716;2023-02-15T09:26:40;38.88;;;21.65;;
48554;SDS011;34336;48.270;16.716;2023-02-15T09:29:09;44.60;;;21.30;;
48554;SDS011;34336;48.270;16.716;2023-02-15T09:31:38;38.85;;;20.90;;
48554;SDS011;34336;48.270;16.716;2023-02-15T09:34:07;39.80;;;20.17;;
48554;SDS011;34336;48.270;16.716;2023-02-15T09:36:35;41.95;;;20.65;;
48554;SDS011;34336;48.270;16.716;2023-02-15T09:39:10;42.92;;;21.02;;
48554;SDS011;34336;48.270;16.716;2023-02-15T10:01:20;37.25;;;21.38;;
48554;SDS011;34336;48.270;16.716;2023-02-15T10:09:56;32.00;;;18.67;;
48554;SDS011;34336;48.270;16.716;2023-02-15T10:21:34;32.55;;;18.27;;
48554;SDS011;34336;48.270;16.716;2023-02-15T10:26:46;29.33;;;17.15;;
48554;SDS011;34336;48.270;16.716;2023-02-15T10:32:44;29.27;;;17.30;;
48554;SDS011;34336;48.270;16.716;2023-02-15T10:35:00;33.30;;;17.42;;
48554;SDS011;34336;48.270;16.716;2023-02-15T10:40:41;36.28;;;17.90;;
48554;SDS011;34336;48.270;16.716;2023-02-15T10:43:37;32.17;;;17.65;;
48554;SDS011;34336;48.270;16.716;2023-02-15T11:02:38;31.75;;;17.17;;
48554;SDS011;34336;48.270;16.716;2023-02-15T11:07:54;33.42;;;19.10;;
48554;SDS011;34336;48.270;16.716;2023-02-15T11:10:30;34.90;;;18.67;;
48554;SDS011;34336;48.270;16.716;2023-02-15T11:13:11;35.78;;;18.88;;
48554;SDS011;34336;48.270;16.716;2023-02-15T11:15:43;37.45;;;19.42;;
48554;SDS011;34336;48.270;16.716;2023-02-15T11:18:16;38.40;;;20.50;;
48554;SDS011;34336;48.270;16.716;2023-02-15T11:20:49;36.65;;;19.48;;
48554;SDS011;34336;48.270;16.716;2023-02-15T11:23:21;38.60;;;20.33;;
48554;SDS011;34336;48.270;16.716;2023-02-15T11:25:58;37.83;;;19.98;;
48554;SDS011;34336;48.270;16.716;2023-02-15T11:28:30;37.15;;;20.33;;
48554;SDS011;34336;48.270;16.716;2023-02-15T11:31:02;38.20;;;20.52;;
48554;SDS011;34336;48.270;16.716;2023-02-15T11:33:43;34.30;;;18.70;;
48554;SDS011;34336;48.270;16.716;2023-02-15T11:36:15;36.20;;;19.90;;
48554;SDS011;34336;48.270;16.716;2023-02-15T11:41:19;34.22;;;18.65;;
48554;SDS011;34336;48.270;16.716;2023-02-15T11:43:53;33.13;;;19.20;;
48554;SDS011;34336;48.270;16.716;2023-02-15T11:46:27;34.83;;;19.00;;
48554;SDS011;34336;48.270;16.716;2023-02-15T11:48:55;36.08;;;19.48;;
48554;SDS011;34336;48.270;16.716;2023-02-15T11:51:22;35.42;;;18.73;;
48554;SDS011;34336;48.270;16.716;2023-02-15T11:53:49;36.47;;;19.60;;
48554;SDS011;34336;48.270;16.716;2023-02-15T11:56:19;35.03;;;18.77;;
48554;SDS011;34336;48.270;16.716;2023-02-15T11:59:04;33.60;;;18.45;;
48554;SDS011;34336;48.270;16.716;2023-02-15T12:01:43;33.83;;;18.67;;
48554;SDS011;34336;48.270;16.716;2023-02-15T12:04:24;36.33;;;18.65;;
48554;SDS011;34336;48.270;16.716;2023-02-15T12:06:53;35.30;;;19.85;;
48554;SDS011;34336;48.270;16.716;2023-02-15T12:09:33;34.83;;;19.80;;
48554;SDS011;34336;48.270;16.716;2023-02-15T12:12:20;33.97;;;18.88;;
48554;SDS011;34336;48.270;16.716;2023-02-15T12:15:00;33.17;;;18.30;;
48554;SDS011;34336;48.270;16.716;2023-02-15T12:17:29;34.13;;;19.13;;
48554;SDS011;34336;48.270;16.716;2023-02-15T12:20:42;33.65;;;18.38;;
48554;SDS011;34336;48.270;16.716;2023-02-15T12:23:06;33.00;;;18.90;;
48554;SDS011;34336;48.270;16.716;2023-02-15T12:25:43;36.85;;;19.17;;
48554;SDS011;34336;48.270;16.716;2023-02-15T12:28:51;32.55;;;19.05;;
48554;SDS011;34336;48.270;16.716;2023-02-15T12:31:23;36.63;;;19.05;;
48554;SDS011;34336;48.270;16.716;2023-02-15T12:33:55;39.35;;;20.17;;
48554;SDS011;34336;48.270;16.716;2023-02-15T12:36:25;34.83;;;18.65;;
48554;SDS011;34336;48.270;16.716;2023-02-15T12:41:30;31.58;;;18.95;;
48554;SDS011;34336;48.270;16.716;2023-02-15T12:44:09;36.08;;;19.98;;
48554;SDS011;34336;48.270;16.716;2023-02-15T12:47:01;33.40;;;18.92;;
48554;SDS011;34336;48.270;16.716;2023-02-15T12:49:35;34.58;;;19.38;;
48554;SDS011;34336;48.270;16.716;2023-02-15T12:52:04;32.88;;;18.85;;
48554;SDS011;34336;48.270;16.716;2023-02-15T12:54:37;34.30;;;19.63;;
48554;SDS011;34336;48.270;16.716;2023-02-15T12:57:13;35.88;;;18.95;;
48554;SDS011;34336;48.270;16.716;2023-02-15T13:00:03;40.15;;;21.55;;
48554;SDS011;34336;48.270;16.716;2023-02-15T13:08:02;35.75;;;18.80;;
48554;SDS011;34336;48.270;16.716;2023-02-15T13:10:36;34.78;;;20.48;;
48554;SDS011;34336;48.270;16.716;2023-02-15T13:13:09;37.25;;;20.05;;
48554;SDS011;34336;48.270;16.716;2023-02-15T13:15:41;34.42;;;20.10;;
48554;SDS011;34336;48.270;16.716;2023-02-15T13:18:17;42.38;;;21.13;;
48554;SDS011;34336;48.270;16.716;2023-02-15T13:20:53;36.20;;;21.05;;
48554;SDS011;34336;48.270;16.716;2023-02-15T13:23:22;40.60;;;22.05;;
48554;SDS011;34336;48.270;16.716;2023-02-15T13:25:54;35.45;;;20.00;;
48554;SDS011;34336;48.270;16.716;2023-02-15T13:28:41;35.08;;;20.17;;
48554;SDS011;34336;48.270;16.716;2023-02-15T13:31:12;37.40;;;20.98;;
48554;SDS011;34336;48.270;16.716;2023-02-15T13:33:42;39.15;;;21.92;;
48554;SDS011;34336;48.270;16.716;2023-02-15T13:36:15;35.92;;;21.38;;
48554;SDS011;34336;48.270;16.716;2023-02-15T13:47:19;41.47;;;22.05;;
48554;SDS011;34336;48.270;16.716;2023-02-15T13:52:28;44.92;;;23.45;;
48554;SDS011;34336;48.270;16.716;2023-02-15T13:55:21;47.20;;;23.63;;
48554;SDS011;34336;48.270;16.716;2023-02-15T14:14:21;48.25;;;24.67;;
48554;SDS011;34336;48.270;16.716;2023-02-15T14:25:52;50.25;;;24.67;;
48554;SDS011;34336;48.270;16.716;2023-02-15T14:31:09;49.42;;;27.35;;
48554;SDS011;34336;48.270;16.716;2023-02-15T14:33:39;48.13;;;25.35;;
48554;SDS011;34336;48.270;16.716;2023-02-15T14:36:11;49.42;;;27.15;;
48554;SDS011;34336;48.270;16.716;2023-02-15T14:42:25;47.97;;;25.48;;
48554;SDS011;34336;48.270;16.716;2023-02-15T14:45:53;47.92;;;26.27;;
48554;SDS011;34336;48.270;16.716;2023-02-15T14:48:05;51.95;;;27.33;;
48554;SDS011;34336;48.270;16.716;2023-02-15T14:50:57;50.70;;;25.45;;
48554;SDS011;34336;48.270;16.716;2023-02-15T14:53:32;49.33;;;26.80;;
48554;SDS011;34336;48.270;16.716;2023-02-15T14:58:34;53.05;;;26.75;;
48554;SDS011;34336;48.270;16.716;2023-02-15T15:01:09;51.70;;;26.38;;
48554;SDS011;34336;48.270;16.716;2023-02-15T15:03:50;54.17;;;26.00;;
48554;SDS011;34336;48.270;16.716;2023-02-15T15:06:27;47.92;;;24.45;;
48554;SDS011;34336;48.270;16.716;2023-02-15T15:09:20;47.45;;;24.60;;
48554;SDS011;34336;48.270;16.716;2023-02-15T15:11:51;45.15;;;24.23;;
48554;SDS011;34336;48.270;16.716;2023-02-15T15:17:02;44.95;;;23.15;;
48554;SDS011;34336;48.270;16.716;2023-02-15T15:22:19;48.15;;;23.90;;
48554;SDS011;34336;48.270;16.716;2023-02-15T15:24:51;50.97;;;25.95;;
48554;SDS011;34336;48.270;16.716;2023-02-15T15:27:38;45.37;;;24.13;;
48554;SDS011;34336;48.270;16.716;2023-02-15T15:35:14;50.15;;;26.08;;
48554;SDS011;34336;48.270;16.716;2023-02-15T15:49:28;46.60;;;22.88;;
48554;SDS011;34336;48.270;16.716;2023-02-15T15:52:10;50.78;;;24.88;;
48554;SDS011;34336;48.270;16.716;2023-02-15T15:54:41;47.33;;;24.15;;
48554;SDS011;34336;48.270;16.716;2023-02-15T15:57:15;49.28;;;25.30;;
48554;SDS011;34336;48.270;16.716;2023-02-15T15:59:49;50.22;;;24.30;;
48554;SDS011;34336;48.270;16.716;2023-02-15T16:02:16;50.42;;;25.17;;
48554;SDS011;34336;48.270;16.716;2023-02-15T16:04:43;54.40;;;25.75;;
48554;SDS011;34336;48.270;16.716;2023-02-15T16:12:20;57.65;;;27.08;;
48554;SDS011;34336;48.270;16.716;2023-02-15T16:14:49;53.78;;;26.73;;
48554;SDS011;34336;48.270;16.716;2023-02-15T16:17:19;51.45;;;25.25;;
48554;SDS011;34336;48.270;16.716;2023-02-15T16:19:49;54.55;;;26.25;;
48554;SDS011;34336;48.270;16.716;2023-02-15T16:22:19;53.42;;;25.65;;
48554;SDS011;34336;48.270;16.716;2023-02-15T16:27:44;49.90;;;24.92;;
48554;SDS011;34336;48.270;16.716;2023-02-15T16:30:19;49.05;;;25.42;;
48554;SDS011;34336;48.270;16.716;2023-02-15T16:32:46;51.25;;;25.20;;
48554;SDS011;34336;48.270;16.716;2023-02-15T16:35:17;51.55;;;25.88;;
48554;SDS011;34336;48.270;16.716;2023-02-15T16:37:45;52.25;;;25.42;;
48554;SDS011;34336;48.270;16.716;2023-02-15T16:42:51;57.45;;;26.13;;
48554;SDS011;34336;48.270;16.716;2023-02-15T16:45:26;55.63;;;26.55;;
48554;SDS011;34336;48.270;16.716;2023-02-15T16:47:54;52.30;;;27.77;;
48554;SDS011;34336;48.270;16.716;2023-02-15T16:50:24;49.78;;;25.70;;
48554;SDS011;34336;48.270;16.716;2023-02-15T16:52:57;50.75;;;27.02;;
48554;SDS011;34336;48.270;16.716;2023-02-15T16:55:25;49.75;;;25.80;;
48554;SDS011;34336;48.270;16.716;2023-02-15T16:57:55;53.45;;;26.10;;
48554;SDS011;34336;48.270;16.716;2023-02-15T17:00:26;56.13;;;27.80;;
48554;SDS011;34336;48.270;16.716;2023-02-15T17:05:46;57.95;;;27.73;;
48554;SDS011;34336;48.270;16.716;2023-02-15T17:08:17;55.28;;;27.58;;
48554;SDS011;34336;48.270;16.716;2023-02-15T17:13:26;60.05;;;29.65;;
48554;SDS011;34336;48.270;16.716;2023-02-15T17:18:28;55.60;;;29.13;;
48554;SDS011;34336;48.270;16.716;2023-02-15T17:20:58;58.60;;;28.90;;
48554;SDS011;34336;48.270;16.716;2023-02-15T17:23:34;53.58;;;28.48;;
48554;SDS011;34336;48.270;16.716;2023-02-15T17:26:50;60.67;;;30.63;;
48554;SDS011;34336;48.270;16.716;2023-02-15T17:29:00;60.55;;;30.05;;
48554;SDS011;34336;48.270;16.716;2023-02-15T17:31:36;62.35;;;30.02;;
48554;SDS011;34336;48.270;16.716;2023-02-15T17:34:03;57.95;;;30.08;;
48554;SDS011;34336;48.270;16.716;2023-02-15T17:36:31;57.92;;;29.63;;
48554;SDS011;34336;48.270;16.716;2023-02-15T17:41:24;57.35;;;30.05;;
48554;SDS011;34336;48.270;16.716;2023-02-15T17:43:52;60.13;;;30.33;;
48554;SDS011;34336;48.270;16.716;2023-02-15T17:46:19;59.88;;;29.55;;
48554;SDS011;34336;48.270;16.716;2023-02-15T17:48:52;61.40;;;28.98;;
48554;SDS011;34336;48.270;16.716;2023-02-15T17:51:21;58.70;;;28.38;;